sensor_id;sensor_type;location;lat;lon;timestamp;P1;durP1;ratioP1;P2;durP2;ratioP2
4049;SDS011;2039;50.894;6.888;2023-01-29T00:01:51;120.77;;;41.60;;
4049;SDS011;2039;50.894;6.888;2023-01-29T00:04:17;125.90;;;41.77;;
4049;SDS011;2039;50.894;6.888;2023-01-29T00:06:43;120.93;;;38.97;;
4049;SDS011;2039;50.894;6.888;2023-01-29T00:09:09;120.40;;;38.80;;
4049;SDS011;2039;50.894;6.888;2023-01-29T00:11:35;123.97;;;43.00;;
4049;SDS011;2039;50.894;6.888;2023-01-29T00:14:01;118.97;;;36.77;;
4049;SDS011;2039;50.894;6.888;2023-01-29T00:16:27;123.90;;;36.90;;
4049;SDS011;2039;50.894;6.888;2023-01-29T00:18:52;119.60;;;38.20;;
4049;SDS011;2039;50.894;6.888;2023-01-29T00:21:19;117.10;;;39.20;;
4049;SDS011;2039;50.894;6.888;2023-01-29T00:23:49;123.03;;;39.47;;
4049;SDS011;2039;50.894;6.888;2023-01-29T00:26:15;114.75;;;39.03;;
4049;SDS011;2039;50.894;6.888;2023-01-29T00:28:41;118.90;;;38.55;;
4049;SDS011;2039;50.894;6.888;2023-01-29T00:31:14;126.30;;;40.70;;
4049;SDS011;2039;50.894;6.888;2023-01-29T00:33:42;116.97;;;38.97;;
4049;SDS011;2039;50.894;6.888;2023-01-29T00:36:08;126.07;;;40.23;;
4049;SDS011;2039;50.894;6.888;2023-01-29T00:38:36;113.35;;;37.65;;
4049;SDS011;2039;50.894;6.888;2023-01-29T00:41:09;126.53;;;40.33;;
4049;SDS011;2039;50.894;6.888;2023-01-29T00:43:55;118.68;;;35.88;;
4049;SDS011;2039;50.894;6.888;2023-01-29T00:46:39;117.07;;;38.03;;
4049;SDS011;2039;50.894;6.888;2023-01-29T00:49:05;127.77;;;37.40;;
4049;SDS011;2039;50.894;6.888;2023-01-29T00:51:32;122.95;;;36.78;;
4049;SDS011;2039;50.894;6.888;2023-01-29T00:53:58;127.00;;;37.70;;
4049;SDS011;2039;50.894;6.888;2023-01-29T00:56:29;119.13;;;37.50;;
4049;SDS011;2039;50.894;6.888;2023-01-29T00:58:55;124.55;;;41.38;;
4049;SDS011;2039;50.894;6.888;2023-01-29T01:01:21;121.13;;;37.22;;
4049;SDS011;2039;50.894;6.888;2023-01-29T01:04:06;115.95;;;39.92;;
4049;SDS011;2039;50.894;6.888;2023-01-29T01:06:35;116.30;;;36.35;;
4049;SDS011;2039;50.894;6.888;2023-01-29T01:09:02;118.22;;;39.03;;
4049;SDS011;2039;50.894;6.888;2023-01-29T01:11:46;113.22;;;34.58;;
4049;SDS011;2039;50.894;6.888;2023-01-29T01:14:13;118.30;;;39.50;;
4049;SDS011;2039;50.894;6.888;2023-01-29T01:16:43;118.45;;;37.65;;
4049;SDS011;2039;50.894;6.888;2023-01-29T01:19:10;122.20;;;35.95;;
4049;SDS011;2039;50.894;6.888;2023-01-29T01:21:36;115.45;;;35.25;;
4049;SDS011;2039;50.894;6.888;2023-01-29T01:24:05;118.00;;;36.00;;
4049;SDS011;2039;50.894;6.888;2023-01-29T01:26:31;114.97;;;38.13;;
4049;SDS011;2039;50.894;6.888;2023-01-29T01:28:57;118.60;;;35.72;;
4049;SDS011;2039;50.894;6.888;2023-01-29T01:31:23;114.68;;;37.47;;
4049;SDS011;2039;50.894;6.888;2023-01-29T01:33:49;119.80;;;37.38;;
4049;SDS011;2039;50.894;6.888;2023-01-29T01:36:15;117.78;;;39.53;;
4049;SDS011;2039;50.894;6.888;2023-01-29T01:38:42;114.22;;;35.75;;
4049;SDS011;2039;50.894;6.888;2023-01-29T01:41:12;119.25;;;39.88;;
4049;SDS011;2039;50.894;6.888;2023-01-29T01:46:35;114.13;;;34.70;;
4049;SDS011;2039;50.894;6.888;2023-01-29T01:49:03;125.88;;;37.60;;
4049;SDS011;2039;50.894;6.888;2023-01-29T01:51:34;110.45;;;36.80;;
4049;SDS011;2039;50.894;6.888;2023-01-29T01:54:15;120.20;;;36.72;;
4049;SDS011;2039;50.894;6.888;2023-01-29T01:56:46;114.88;;;34.60;;
4049;SDS011;2039;50.894;6.888;2023-01-29T01:59:19;116.85;;;34.95;;
4049;SDS011;2039;50.894;6.888;2023-01-29T02:01:48;115.43;;;36.40;;
4049;SDS011;2039;50.894;6.888;2023-01-29T02:04:21;123.35;;;38.53;;
4049;SDS011;2039;50.894;6.888;2023-01-29T02:07:09;110.65;;;32.38;;
4049;SDS011;2039;50.894;6.888;2023-01-29T02:10:00;120.93;;;36.65;;
4049;SDS011;2039;50.894;6.888;2023-01-29T02:12:33;126.68;;;38.83;;
4049;SDS011;2039;50.894;6.888;2023-01-29T02:15:01;110.68;;;36.03;;
4049;SDS011;2039;50.894;6.888;2023-01-29T02:17:27;112.88;;;35.83;;
4049;SDS011;2039;50.894;6.888;2023-01-29T02:20:07;112.07;;;37.50;;
4049;SDS011;2039;50.894;6.888;2023-01-29T02:30:40;121.80;;;39.63;;
4049;SDS011;2039;50.894;6.888;2023-01-29T02:33:20;119.93;;;37.58;;
4049;SDS011;2039;50.894;6.888;2023-01-29T02:36:03;116.30;;;38.40;;
4049;SDS011;2039;50.894;6.888;2023-01-29T02:38:59;110.05;;;38.17;;
4049;SDS011;2039;50.894;6.888;2023-01-29T02:44:38;122.78;;;38.58;;
4049;SDS011;2039;50.894;6.888;2023-01-29T02:50:19;116.75;;;39.47;;
4049;SDS011;2039;50.894;6.888;2023-01-29T02:53:08;119.07;;;39.33;;
4049;SDS011;2039;50.894;6.888;2023-01-29T02:55:48;110.13;;;34.58;;
4049;SDS011;2039;50.894;6.888;2023-01-29T03:00:52;120.68;;;37.88;;
4049;SDS011;2039;50.894;6.888;2023-01-29T03:03:24;120.10;;;39.90;;
4049;SDS011;2039;50.894;6.888;2023-01-29T03:06:05;112.45;;;39.65;;
4049;SDS011;2039;50.894;6.888;2023-01-29T03:11:24;118.82;;;38.33;;
4049;SDS011;2039;50.894;6.888;2023-01-29T03:14:08;119.88;;;41.92;;
4049;SDS011;2039;50.894;6.888;2023-01-29T03:17:17;111.60;;;36.05;;
4049;SDS011;2039;50.894;6.888;2023-01-29T03:19:46;117.53;;;38.80;;
4049;SDS011;2039;50.894;6.888;2023-01-29T03:22:12;118.05;;;40.35;;
4049;SDS011;2039;50.894;6.888;2023-01-29T03:27:39;112.15;;;35.90;;
4049;SDS011;2039;50.894;6.888;2023-01-29T03:30:30;120.18;;;39.38;;
4049;SDS011;2039;50.894;6.888;2023-01-29T03:33:17;114.40;;;37.55;;
4049;SDS011;2039;50.894;6.888;2023-01-29T03:35:53;114.45;;;37.65;;
4049;SDS011;2039;50.894;6.888;2023-01-29T03:38:25;117.95;;;38.47;;
4049;SDS011;2039;50.894;6.888;2023-01-29T03:41:00;117.50;;;37.92;;
4049;SDS011;2039;50.894;6.888;2023-01-29T03:43:35;117.35;;;37.47;;
4049;SDS011;2039;50.894;6.888;2023-01-29T03:46:17;120.50;;;38.63;;
4049;SDS011;2039;50.894;6.888;2023-01-29T03:49:37;119.20;;;37.10;;
4049;SDS011;2039;50.894;6.888;2023-01-29T04:02:46;113.63;;;40.05;;
4049;SDS011;2039;50.894;6.888;2023-01-29T04:05:35;109.55;;;34.28;;
4049;SDS011;2039;50.894;6.888;2023-01-29T04:08:17;113.25;;;35.97;;
4049;SDS011;2039;50.894;6.888;2023-01-29T04:10:48;118.22;;;38.83;;
4049;SDS011;2039;50.894;6.888;2023-01-29T04:13:18;113.28;;;36.05;;
4049;SDS011;2039;50.894;6.888;2023-01-29T04:15:55;111.68;;;36.08;;
4049;SDS011;2039;50.894;6.888;2023-01-29T04:18:24;109.82;;;35.55;;
4049;SDS011;2039;50.894;6.888;2023-01-29T04:20:50;111.33;;;36.33;;
4049;SDS011;2039;50.894;6.888;2023-01-29T04:23:23;112.65;;;36.25;;
4049;SDS011;2039;50.894;6.888;2023-01-29T04:29:03;117.63;;;34.97;;
4049;SDS011;2039;50.894;6.888;2023-01-29T04:34:37;116.85;;;38.45;;
4049;SDS011;2039;50.894;6.888;2023-01-29T04:43:01;116.10;;;36.80;;
4049;SDS011;2039;50.894;6.888;2023-01-29T04:48:19;120.13;;;36.60;;
4049;SDS011;2039;50.894;6.888;2023-01-29T04:51:37;123.78;;;37.75;;
4049;SDS011;2039;50.894;6.888;2023-01-29T04:53:49;106.80;;;33.95;;
4049;SDS011;2039;50.894;6.888;2023-01-29T04:59:15;120.65;;;38.05;;
4049;SDS011;2039;50.894;6.888;2023-01-29T05:01:45;119.85;;;38.92;;
4049;SDS011;2039;50.894;6.888;2023-01-29T05:04:12;108.78;;;38.92;;
4049;SDS011;2039;50.894;6.888;2023-01-29T05:06:42;115.50;;;38.42;;
4049;SDS011;2039;50.894;6.888;2023-01-29T05:09:10;107.90;;;33.15;;
4049;SDS011;2039;50.894;6.888;2023-01-29T05:11:38;116.15;;;38.58;;
4049;SDS011;2039;50.894;6.888;2023-01-29T05:14:06;115.28;;;38.60;;
4049;SDS011;2039;50.894;6.888;2023-01-29T05:16:42;108.90;;;35.08;;
4049;SDS011;2039;50.894;6.888;2023-01-29T05:19:12;120.82;;;36.22;;
4049;SDS011;2039;50.894;6.888;2023-01-29T05:21:40;113.32;;;37.03;;
4049;SDS011;2039;50.894;6.888;2023-01-29T05:24:13;115.85;;;38.88;;
4049;SDS011;2039;50.894;6.888;2023-01-29T05:26:44;133.43;;;39.75;;
4049;SDS011;2039;50.894;6.888;2023-01-29T05:29:30;109.35;;;33.50;;
4049;SDS011;2039;50.894;6.888;2023-01-29T05:31:55;116.70;;;37.77;;
4049;SDS011;2039;50.894;6.888;2023-01-29T05:34:21;115.93;;;40.07;;
4049;SDS011;2039;50.894;6.888;2023-01-29T05:36:47;119.63;;;38.35;;
4049;SDS011;2039;50.894;6.888;2023-01-29T05:39:14;116.70;;;35.53;;
4049;SDS011;2039;50.894;6.888;2023-01-29T05:41:39;120.50;;;36.97;;
4049;SDS011;2039;50.894;6.888;2023-01-29T05:44:05;114.07;;;37.13;;
4049;SDS011;2039;50.894;6.888;2023-01-29T05:46:31;115.33;;;37.77;;
4049;SDS011;2039;50.894;6.888;2023-01-29T05:48:56;121.27;;;36.73;;
4049;SDS011;2039;50.894;6.888;2023-01-29T05:51:23;111.68;;;36.47;;
4049;SDS011;2039;50.894;6.888;2023-01-29T05:53:48;112.53;;;37.33;;
4049;SDS011;2039;50.894;6.888;2023-01-29T05:56:14;117.87;;;38.27;;
4049;SDS011;2039;50.894;6.888;2023-01-29T05:58:40;103.47;;;33.87;;
4049;SDS011;2039;50.894;6.888;2023-01-29T06:03:35;120.15;;;41.78;;
4049;SDS011;2039;50.894;6.888;2023-01-29T06:06:01;121.13;;;40.23;;
4049;SDS011;2039;50.894;6.888;2023-01-29T06:08:26;120.10;;;36.60;;
4049;SDS011;2039;50.894;6.888;2023-01-29T06:10:52;117.40;;;39.20;;
4049;SDS011;2039;50.894;6.888;2023-01-29T06:13:18;113.13;;;33.13;;
4049;SDS011;2039;50.894;6.888;2023-01-29T06:15:43;112.73;;;35.67;;
4049;SDS011;2039;50.894;6.888;2023-01-29T06:18:09;119.40;;;39.77;;
4049;SDS011;2039;50.894;6.888;2023-01-29T06:20:35;116.37;;;35.30;;
4049;SDS011;2039;50.894;6.888;2023-01-29T06:23:01;116.03;;;38.60;;
4049;SDS011;2039;50.894;6.888;2023-01-29T06:25:27;116.47;;;39.13;;
4049;SDS011;2039;50.894;6.888;2023-01-29T06:27:52;109.83;;;37.20;;
4049;SDS011;2039;50.894;6.888;2023-01-29T06:30:20;113.40;;;36.95;;
4049;SDS011;2039;50.894;6.888;2023-01-29T06:32:46;105.47;;;33.27;;
4049;SDS011;2039;50.894;6.888;2023-01-29T06:35:12;115.20;;;34.10;;
4049;SDS011;2039;50.894;6.888;2023-01-29T06:37:38;115.50;;;36.03;;
4049;SDS011;2039;50.894;6.888;2023-01-29T06:40:03;114.80;;;36.10;;
4049;SDS011;2039;50.894;6.888;2023-01-29T06:42:29;111.63;;;38.08;;
4049;SDS011;2039;50.894;6.888;2023-01-29T06:44:55;119.40;;;35.97;;
4049;SDS011;2039;50.894;6.888;2023-01-29T06:47:21;111.53;;;35.07;;
4049;SDS011;2039;50.894;6.888;2023-01-29T06:49:48;112.50;;;35.53;;
4049;SDS011;2039;50.894;6.888;2023-01-29T06:52:13;112.32;;;36.80;;
4049;SDS011;2039;50.894;6.888;2023-01-29T06:54:39;106.83;;;32.93;;
4049;SDS011;2039;50.894;6.888;2023-01-29T06:57:05;115.87;;;33.17;;
4049;SDS011;2039;50.894;6.888;2023-01-29T06:59:31;113.97;;;36.53;;
4049;SDS011;2039;50.894;6.888;2023-01-29T07:01:56;107.67;;;32.70;;
4049;SDS011;2039;50.894;6.888;2023-01-29T07:04:22;115.20;;;34.47;;
4049;SDS011;2039;50.894;6.888;2023-01-29T07:06:48;110.93;;;35.23;;
4049;SDS011;2039;50.894;6.888;2023-01-29T07:09:13;114.67;;;37.30;;
4049;SDS011;2039;50.894;6.888;2023-01-29T07:11:39;114.53;;;34.20;;
4049;SDS011;2039;50.894;6.888;2023-01-29T07:14:05;112.07;;;35.07;;
4049;SDS011;2039;50.894;6.888;2023-01-29T07:16:31;104.60;;;31.05;;
4049;SDS011;2039;50.894;6.888;2023-01-29T07:18:57;113.57;;;36.40;;
4049;SDS011;2039;50.894;6.888;2023-01-29T07:21:23;113.93;;;35.73;;
4049;SDS011;2039;50.894;6.888;2023-01-29T07:23:49;107.50;;;36.58;;
4049;SDS011;2039;50.894;6.888;2023-01-29T07:26:14;120.17;;;37.77;;
4049;SDS011;2039;50.894;6.888;2023-01-29T07:28:41;117.28;;;37.42;;
4049;SDS011;2039;50.894;6.888;2023-01-29T07:31:06;114.20;;;35.90;;
4049;SDS011;2039;50.894;6.888;2023-01-29T07:33:35;116.07;;;36.05;;
4049;SDS011;2039;50.894;6.888;2023-01-29T07:36:07;114.03;;;41.43;;
4049;SDS011;2039;50.894;6.888;2023-01-29T07:38:34;116.47;;;39.67;;
4049;SDS011;2039;50.894;6.888;2023-01-29T07:40:59;115.90;;;37.83;;
4049;SDS011;2039;50.894;6.888;2023-01-29T07:43:25;123.70;;;42.30;;
4049;SDS011;2039;50.894;6.888;2023-01-29T07:46:00;115.80;;;41.03;;
4049;SDS011;2039;50.894;6.888;2023-01-29T07:48:35;122.68;;;39.20;;
4049;SDS011;2039;50.894;6.888;2023-01-29T07:51:01;117.20;;;42.37;;
4049;SDS011;2039;50.894;6.888;2023-01-29T07:53:27;117.50;;;39.93;;
4049;SDS011;2039;50.894;6.888;2023-01-29T07:55:53;120.88;;;42.25;;
4049;SDS011;2039;50.894;6.888;2023-01-29T07:58:19;120.78;;;38.17;;
4049;SDS011;2039;50.894;6.888;2023-01-29T08:00:45;118.40;;;37.97;;
4049;SDS011;2039;50.894;6.888;2023-01-29T08:03:12;119.50;;;39.87;;
4049;SDS011;2039;50.894;6.888;2023-01-29T08:05:40;112.88;;;39.45;;
4049;SDS011;2039;50.894;6.888;2023-01-29T08:08:06;120.88;;;39.55;;
4049;SDS011;2039;50.894;6.888;2023-01-29T08:10:32;112.90;;;38.63;;
4049;SDS011;2039;50.894;6.888;2023-01-29T08:12:59;120.90;;;38.97;;
4049;SDS011;2039;50.894;6.888;2023-01-29T08:15:26;116.45;;;37.20;;
4049;SDS011;2039;50.894;6.888;2023-01-29T08:17:52;111.45;;;38.50;;
4049;SDS011;2039;50.894;6.888;2023-01-29T08:20:18;114.17;;;40.30;;
4049;SDS011;2039;50.894;6.888;2023-01-29T08:22:44;117.63;;;41.88;;
4049;SDS011;2039;50.894;6.888;2023-01-29T08:25:10;118.23;;;38.70;;
4049;SDS011;2039;50.894;6.888;2023-01-29T08:27:36;114.53;;;41.45;;
4049;SDS011;2039;50.894;6.888;2023-01-29T08:30:03;116.13;;;42.03;;
4049;SDS011;2039;50.894;6.888;2023-01-29T08:32:30;114.25;;;37.05;;
4049;SDS011;2039;50.894;6.888;2023-01-29T08:34:55;114.03;;;36.37;;
4049;SDS011;2039;50.894;6.888;2023-01-29T08:37:21;118.83;;;37.90;;
4049;SDS011;2039;50.894;6.888;2023-01-29T08:39:47;120.47;;;38.73;;
4049;SDS011;2039;50.894;6.888;2023-01-29T08:42:12;111.70;;;38.17;;
4049;SDS011;2039;50.894;6.888;2023-01-29T08:44:38;119.60;;;40.50;;
4049;SDS011;2039;50.894;6.888;2023-01-29T08:47:04;117.47;;;40.03;;
4049;SDS011;2039;50.894;6.888;2023-01-29T08:49:29;114.90;;;38.20;;
4049;SDS011;2039;50.894;6.888;2023-01-29T08:51:55;117.80;;;38.77;;
4049;SDS011;2039;50.894;6.888;2023-01-29T08:54:21;119.67;;;41.50;;
4049;SDS011;2039;50.894;6.888;2023-01-29T08:56:47;120.53;;;40.38;;
4049;SDS011;2039;50.894;6.888;2023-01-29T08:59:14;134.35;;;40.67;;
4049;SDS011;2039;50.894;6.888;2023-01-29T09:01:39;115.90;;;38.77;;
4049;SDS011;2039;50.894;6.888;2023-01-29T09:04:05;122.87;;;41.30;;
4049;SDS011;2039;50.894;6.888;2023-01-29T09:06:31;119.97;;;38.97;;
4049;SDS011;2039;50.894;6.888;2023-01-29T09:08:57;116.90;;;39.67;;
4049;SDS011;2039;50.894;6.888;2023-01-29T09:11:22;120.70;;;39.87;;
4049;SDS011;2039;50.894;6.888;2023-01-29T09:13:48;116.37;;;39.00;;
4049;SDS011;2039;50.894;6.888;2023-01-29T09:16:14;122.57;;;38.83;;
4049;SDS011;2039;50.894;6.888;2023-01-29T09:18:40;117.70;;;40.77;;
4049;SDS011;2039;50.894;6.888;2023-01-29T09:21:05;113.70;;;39.20;;
4049;SDS011;2039;50.894;6.888;2023-01-29T09:23:31;122.83;;;38.47;;
4049;SDS011;2039;50.894;6.888;2023-01-29T09:25:57;122.00;;;37.60;;
4049;SDS011;2039;50.894;6.888;2023-01-29T09:28:22;118.80;;;40.07;;
4049;SDS011;2039;50.894;6.888;2023-01-29T09:30:48;122.57;;;41.30;;
4049;SDS011;2039;50.894;6.888;2023-01-29T09:33:14;114.70;;;37.20;;
4049;SDS011;2039;50.894;6.888;2023-01-29T09:35:40;115.80;;;37.43;;
4049;SDS011;2039;50.894;6.888;2023-01-29T09:38:08;118.13;;;39.50;;
4049;SDS011;2039;50.894;6.888;2023-01-29T09:40:37;117.18;;;35.58;;
4049;SDS011;2039;50.894;6.888;2023-01-29T09:46:14;118.82;;;39.60;;
4049;SDS011;2039;50.894;6.888;2023-01-29T09:48:46;123.78;;;39.90;;
4049;SDS011;2039;50.894;6.888;2023-01-29T09:51:23;119.00;;;40.78;;
4049;SDS011;2039;50.894;6.888;2023-01-29T09:54:05;118.18;;;40.13;;
4049;SDS011;2039;50.894;6.888;2023-01-29T09:56:36;118.82;;;38.40;;
4049;SDS011;2039;50.894;6.888;2023-01-29T09:59:02;115.80;;;39.57;;
4049;SDS011;2039;50.894;6.888;2023-01-29T10:15:21;120.85;;;38.45;;
4049;SDS011;2039;50.894;6.888;2023-01-29T10:23:29;117.25;;;39.65;;
4049;SDS011;2039;50.894;6.888;2023-01-29T10:25:58;117.28;;;37.72;;
4049;SDS011;2039;50.894;6.888;2023-01-29T10:28:26;116.82;;;41.30;;
4049;SDS011;2039;50.894;6.888;2023-01-29T10:31:08;109.63;;;35.45;;
4049;SDS011;2039;50.894;6.888;2023-01-29T10:33:40;114.95;;;36.70;;
4049;SDS011;2039;50.894;6.888;2023-01-29T10:36:12;113.95;;;36.03;;
4049;SDS011;2039;50.894;6.888;2023-01-29T10:38:50;122.07;;;37.67;;
4049;SDS011;2039;50.894;6.888;2023-01-29T10:49:40;115.88;;;29.73;;
4049;SDS011;2039;50.894;6.888;2023-01-29T10:58:06;116.35;;;29.58;;
4049;SDS011;2039;50.894;6.888;2023-01-29T11:00:42;114.63;;;28.65;;
4049;SDS011;2039;50.894;6.888;2023-01-29T11:03:18;118.03;;;31.10;;
4049;SDS011;2039;50.894;6.888;2023-01-29T11:05:52;111.97;;;26.55;;
4049;SDS011;2039;50.894;6.888;2023-01-29T11:08:24;124.15;;;29.10;;
4049;SDS011;2039;50.894;6.888;2023-01-29T11:11:00;117.25;;;30.80;;
4049;SDS011;2039;50.894;6.888;2023-01-29T11:13:33;113.22;;;29.25;;
4049;SDS011;2039;50.894;6.888;2023-01-29T11:16:04;117.32;;;31.35;;
4049;SDS011;2039;50.894;6.888;2023-01-29T11:18:47;118.88;;;29.60;;
4049;SDS011;2039;50.894;6.888;2023-01-29T11:21:17;120.00;;;31.13;;
4049;SDS011;2039;50.894;6.888;2023-01-29T11:23:42;110.10;;;27.87;;
4049;SDS011;2039;50.894;6.888;2023-01-29T11:26:10;116.73;;;31.10;;
4049;SDS011;2039;50.894;6.888;2023-01-29T11:28:44;122.00;;;30.90;;
4049;SDS011;2039;50.894;6.888;2023-01-29T11:31:20;120.32;;;31.35;;
4049;SDS011;2039;50.894;6.888;2023-01-29T11:34:00;116.47;;;31.00;;
4049;SDS011;2039;50.894;6.888;2023-01-29T11:36:39;114.53;;;28.83;;
4049;SDS011;2039;50.894;6.888;2023-01-29T11:39:15;114.47;;;29.92;;
4049;SDS011;2039;50.894;6.888;2023-01-29T11:41:46;114.13;;;30.67;;
4049;SDS011;2039;50.894;6.888;2023-01-29T11:44:20;114.68;;;29.80;;
4049;SDS011;2039;50.894;6.888;2023-01-29T11:47:29;114.93;;;29.45;;
4049;SDS011;2039;50.894;6.888;2023-01-29T11:50:18;112.70;;;31.17;;
4049;SDS011;2039;50.894;6.888;2023-01-29T11:52:47;117.85;;;30.30;;
4049;SDS011;2039;50.894;6.888;2023-01-29T11:55:19;116.40;;;30.17;;
4049;SDS011;2039;50.894;6.888;2023-01-29T12:00:43;122.28;;;28.05;;
4049;SDS011;2039;50.894;6.888;2023-01-29T12:05:53;112.85;;;30.08;;
4049;SDS011;2039;50.894;6.888;2023-01-29T12:08:25;111.53;;;30.63;;
4049;SDS011;2039;50.894;6.888;2023-01-29T12:11:09;123.07;;;31.83;;
4049;SDS011;2039;50.894;6.888;2023-01-29T12:13:58;116.65;;;28.48;;
4049;SDS011;2039;50.894;6.888;2023-01-29T12:16:43;119.72;;;28.65;;
4049;SDS011;2039;50.894;6.888;2023-01-29T12:22:00;117.68;;;28.35;;
4049;SDS011;2039;50.894;6.888;2023-01-29T12:24:44;113.95;;;30.15;;
4049;SDS011;2039;50.894;6.888;2023-01-29T12:27:48;119.65;;;29.30;;
4049;SDS011;2039;50.894;6.888;2023-01-29T12:30:33;116.25;;;28.50;;
4049;SDS011;2039;50.894;6.888;2023-01-29T12:33:34;123.80;;;29.38;;
4049;SDS011;2039;50.894;6.888;2023-01-29T12:36:09;125.80;;;33.92;;
4049;SDS011;2039;50.894;6.888;2023-01-29T12:38:42;114.68;;;30.40;;
4049;SDS011;2039;50.894;6.888;2023-01-29T12:43:55;119.95;;;28.67;;
4049;SDS011;2039;50.894;6.888;2023-01-29T12:46:30;116.10;;;28.35;;
4049;SDS011;2039;50.894;6.888;2023-01-29T12:49:02;119.50;;;30.08;;
4049;SDS011;2039;50.894;6.888;2023-01-29T12:51:50;112.13;;;27.70;;
4049;SDS011;2039;50.894;6.888;2023-01-29T12:54:36;116.10;;;29.70;;
4049;SDS011;2039;50.894;6.888;2023-01-29T12:57:19;113.18;;;31.20;;
4049;SDS011;2039;50.894;6.888;2023-01-29T13:03:12;117.43;;;29.35;;
4049;SDS011;2039;50.894;6.888;2023-01-29T13:05:55;109.35;;;26.38;;
4049;SDS011;2039;50.894;6.888;2023-01-29T13:11:09;112.88;;;27.67;;
4049;SDS011;2039;50.894;6.888;2023-01-29T13:13:50;107.97;;;25.35;;
4049;SDS011;2039;50.894;6.888;2023-01-29T13:16:19;112.35;;;28.25;;
4049;SDS011;2039;50.894;6.888;2023-01-29T13:18:53;112.07;;;29.35;;
4049;SDS011;2039;50.894;6.888;2023-01-29T13:21:21;115.75;;;27.40;;
4049;SDS011;2039;50.894;6.888;2023-01-29T13:24:01;109.10;;;26.17;;
4049;SDS011;2039;50.894;6.888;2023-01-29T13:26:29;110.03;;;27.25;;
4049;SDS011;2039;50.894;6.888;2023-01-29T13:28:56;105.18;;;24.95;;
4049;SDS011;2039;50.894;6.888;2023-01-29T13:36:40;108.70;;;26.77;;
4049;SDS011;2039;50.894;6.888;2023-01-29T13:39:16;117.35;;;29.40;;
4049;SDS011;2039;50.894;6.888;2023-01-29T13:41:46;110.97;;;27.98;;
4049;SDS011;2039;50.894;6.888;2023-01-29T13:44:18;110.45;;;25.83;;
4049;SDS011;2039;50.894;6.888;2023-01-29T13:46:54;117.40;;;26.98;;
4049;SDS011;2039;50.894;6.888;2023-01-29T13:49:26;115.18;;;26.40;;
4049;SDS011;2039;50.894;6.888;2023-01-29T13:52:16;113.00;;;28.25;;
4049;SDS011;2039;50.894;6.888;2023-01-29T13:54:54;112.13;;;27.88;;
4049;SDS011;2039;50.894;6.888;2023-01-29T13:57:34;109.80;;;26.17;;
4049;SDS011;2039;50.894;6.888;2023-01-29T14:02:44;106.68;;;24.85;;
4049;SDS011;2039;50.894;6.888;2023-01-29T14:07:58;105.03;;;23.55;;
4049;SDS011;2039;50.894;6.888;2023-01-29T14:10:25;110.85;;;28.52;;
4049;SDS011;2039;50.894;6.888;2023-01-29T14:15:28;104.13;;;25.90;;
4049;SDS011;2039;50.894;6.888;2023-01-29T14:23:55;95.55;;;20.45;;
4049;SDS011;2039;50.894;6.888;2023-01-29T14:26:24;94.32;;;20.05;;
4049;SDS011;2039;50.894;6.888;2023-01-29T14:31:46;83.63;;;12.82;;
4049;SDS011;2039;50.894;6.888;2023-01-29T14:36:52;78.38;;;10.75;;
4049;SDS011;2039;50.894;6.888;2023-01-29T14:39:22;70.63;;;8.65;;
4049;SDS011;2039;50.894;6.888;2023-01-29T14:42:13;72.30;;;9.45;;
4049;SDS011;2039;50.894;6.888;2023-01-29T14:55:05;76.20;;;10.02;;
4049;SDS011;2039;50.894;6.888;2023-01-29T14:57:39;70.63;;;9.00;;
4049;SDS011;2039;50.894;6.888;2023-01-29T15:00:13;71.68;;;7.97;;
4049;SDS011;2039;50.894;6.888;2023-01-29T15:02:46;71.88;;;9.32;;
4049;SDS011;2039;50.894;6.888;2023-01-29T15:05:17;72.95;;;7.93;;
4049;SDS011;2039;50.894;6.888;2023-01-29T15:07:47;68.75;;;8.40;;
4049;SDS011;2039;50.894;6.888;2023-01-29T15:10:24;71.10;;;8.10;;
4049;SDS011;2039;50.894;6.888;2023-01-29T15:15:45;71.30;;;8.70;;
4049;SDS011;2039;50.894;6.888;2023-01-29T15:18:25;70.20;;;8.32;;
4049;SDS011;2039;50.894;6.888;2023-01-29T15:21:02;71.40;;;8.85;;
4049;SDS011;2039;50.894;6.888;2023-01-29T15:23:35;70.18;;;8.60;;
4049;SDS011;2039;50.894;6.888;2023-01-29T15:26:03;71.03;;;8.63;;
4049;SDS011;2039;50.894;6.888;2023-01-29T15:28:33;68.45;;;7.70;;
4049;SDS011;2039;50.894;6.888;2023-01-29T15:31:03;71.00;;;8.05;;
4049;SDS011;2039;50.894;6.888;2023-01-29T15:33:36;70.30;;;8.30;;
4049;SDS011;2039;50.894;6.888;2023-01-29T15:36:05;72.00;;;8.60;;
4049;SDS011;2039;50.894;6.888;2023-01-29T15:38:31;70.80;;;8.80;;
4049;SDS011;2039;50.894;6.888;2023-01-29T15:40:58;70.70;;;8.37;;
4049;SDS011;2039;50.894;6.888;2023-01-29T15:45:52;71.28;;;8.18;;
4049;SDS011;2039;50.894;6.888;2023-01-29T15:48:27;70.20;;;7.82;;
4049;SDS011;2039;50.894;6.888;2023-01-29T15:50:59;78.38;;;10.07;;
4049;SDS011;2039;50.894;6.888;2023-01-29T15:53:37;71.00;;;7.95;;
4049;SDS011;2039;50.894;6.888;2023-01-29T15:56:11;73.88;;;9.80;;
4049;SDS011;2039;50.894;6.888;2023-01-29T15:58:40;72.32;;;9.40;;
4049;SDS011;2039;50.894;6.888;2023-01-29T16:01:06;71.63;;;8.45;;
4049;SDS011;2039;50.894;6.888;2023-01-29T16:03:33;70.88;;;8.55;;
4049;SDS011;2039;50.894;6.888;2023-01-29T16:06:01;70.45;;;8.77;;
4049;SDS011;2039;50.894;6.888;2023-01-29T16:08:27;71.47;;;8.00;;
4049;SDS011;2039;50.894;6.888;2023-01-29T16:10:55;73.15;;;9.18;;
4049;SDS011;2039;50.894;6.888;2023-01-29T16:13:27;69.35;;;8.75;;
4049;SDS011;2039;50.894;6.888;2023-01-29T16:18:27;71.28;;;8.25;;
4049;SDS011;2039;50.894;6.888;2023-01-29T16:21:03;71.22;;;8.68;;
4049;SDS011;2039;50.894;6.888;2023-01-29T16:23:49;70.28;;;9.05;;
4049;SDS011;2039;50.894;6.888;2023-01-29T16:26:19;76.97;;;9.73;;
4049;SDS011;2039;50.894;6.888;2023-01-29T16:28:48;78.45;;;9.25;;
4049;SDS011;2039;50.894;6.888;2023-01-29T16:31:24;84.60;;;9.53;;
4049;SDS011;2039;50.894;6.888;2023-01-29T16:33:52;76.47;;;10.35;;
4049;SDS011;2039;50.894;6.888;2023-01-29T16:36:19;75.00;;;10.30;;
4049;SDS011;2039;50.894;6.888;2023-01-29T16:38:54;74.70;;;9.90;;
4049;SDS011;2039;50.894;6.888;2023-01-29T16:44:03;72.90;;;11.07;;
4049;SDS011;2039;50.894;6.888;2023-01-29T16:46:48;71.40;;;10.05;;
4049;SDS011;2039;50.894;6.888;2023-01-29T16:51:51;75.22;;;9.68;;
4049;SDS011;2039;50.894;6.888;2023-01-29T16:54:19;73.88;;;9.70;;
4049;SDS011;2039;50.894;6.888;2023-01-29T16:56:50;76.88;;;10.70;;
4049;SDS011;2039;50.894;6.888;2023-01-29T16:59:31;74.07;;;10.52;;
4049;SDS011;2039;50.894;6.888;2023-01-29T17:02:00;73.95;;;9.88;;
4049;SDS011;2039;50.894;6.888;2023-01-29T17:04:27;76.63;;;11.43;;
4049;SDS011;2039;50.894;6.888;2023-01-29T17:06:54;74.80;;;10.90;;
4049;SDS011;2039;50.894;6.888;2023-01-29T17:09:32;84.47;;;13.85;;
4049;SDS011;2039;50.894;6.888;2023-01-29T17:12:05;76.30;;;12.13;;
4049;SDS011;2039;50.894;6.888;2023-01-29T17:14:34;83.60;;;15.55;;
4049;SDS011;2039;50.894;6.888;2023-01-29T17:17:06;77.00;;;13.35;;
4049;SDS011;2039;50.894;6.888;2023-01-29T17:19:38;75.70;;;10.70;;
4049;SDS011;2039;50.894;6.888;2023-01-29T17:22:04;92.97;;;22.27;;
4049;SDS011;2039;50.894;6.888;2023-01-29T17:24:33;119.00;;;37.35;;
4049;SDS011;2039;50.894;6.888;2023-01-29T17:26:59;88.75;;;19.08;;
4049;SDS011;2039;50.894;6.888;2023-01-29T17:29:27;88.43;;;21.35;;
4049;SDS011;2039;50.894;6.888;2023-01-29T17:31:54;82.65;;;15.77;;
4049;SDS011;2039;50.894;6.888;2023-01-29T17:34:20;80.88;;;13.57;;
4049;SDS011;2039;50.894;6.888;2023-01-29T17:36:47;81.78;;;12.43;;
4049;SDS011;2039;50.894;6.888;2023-01-29T17:39:22;84.20;;;15.87;;
4049;SDS011;2039;50.894;6.888;2023-01-29T17:41:50;83.97;;;16.35;;